sensor_id;sensor_type;location;lat;lon;timestamp;pressure;altitude;pressure_sealevel;temperature;humidity
37832;BME280;23671;38.090;-122.570;2023-02-19T00:01:32;101595.16;;;13.86;61.60
37832;BME280;23671;38.090;-122.570;2023-02-19T00:04:20;101597.69;;;13.87;61.33
37832;BME280;23671;38.090;-122.570;2023-02-19T00:06:50;101593.09;;;13.89;61.17
37832;BME280;23671;38.090;-122.570;2023-02-19T00:09:18;101593.09;;;13.89;61.60
37832;BME280;23671;38.090;-122.570;2023-02-19T00:11:45;101592.97;;;13.91;61.54
37832;BME280;23671;38.090;-122.570;2023-02-19T00:14:18;101592.88;;;13.92;61.52
37832;BME280;23671;38.090;-122.570;2023-02-19T00:16:46;101602.38;;;13.95;61.06
37832;BME280;23671;38.090;-122.570;2023-02-19T00:19:16;101600.59;;;13.95;61.12
37832;BME280;23671;38.090;-122.570;2023-02-19T00:22:02;101601.19;;;13.99;61.42
37832;BME280;23671;38.090;-122.570;2023-02-19T00:24:29;101599.38;;;13.99;60.82
37832;BME280;23671;38.090;-122.570;2023-02-19T00:26:56;101605.41;;;14.01;61.35
37832;BME280;23671;38.090;-122.570;2023-02-19T00:29:23;101607.09;;;14.02;61.04
37832;BME280;23671;38.090;-122.570;2023-02-19T00:31:50;101617.84;;;14.01;61.01
37832;BME280;23671;38.090;-122.570;2023-02-19T00:34:17;101615.06;;;14.02;61.38
37832;BME280;23671;38.090;-122.570;2023-02-19T00:36:44;101622.06;;;14.03;61.10
37832;BME280;23671;38.090;-122.570;2023-02-19T00:39:14;101623.88;;;14.03;61.29
37832;BME280;23671;38.090;-122.570;2023-02-19T00:41:41;101639.81;;;14.03;61.42
37832;BME280;23671;38.090;-122.570;2023-02-19T00:44:10;101641.50;;;14.04;61.20
37832;BME280;23671;38.090;-122.570;2023-02-19T00:46:38;101656.47;;;14.05;61.10
37832;BME280;23671;38.090;-122.570;2023-02-19T00:49:07;101668.91;;;14.04;61.59
37832;BME280;23671;38.090;-122.570;2023-02-19T00:51:36;101675.19;;;14.03;61.45
37832;BME280;23671;38.090;-122.570;2023-02-19T00:54:04;101670.72;;;14.04;61.33
37832;BME280;23671;38.090;-122.570;2023-02-19T00:56:32;101677.00;;;14.03;61.28
37832;BME280;23671;38.090;-122.570;2023-02-19T00:58:59;101677.13;;;14.01;61.51
37832;BME280;23671;38.090;-122.570;2023-02-19T01:01:26;101678.06;;;14.00;61.57
37832;BME280;23671;38.090;-122.570;2023-02-19T01:03:53;101677.25;;;14.00;61.77
37832;BME280;23671;38.090;-122.570;2023-02-19T01:06:21;101688.69;;;14.00;61.58
37832;BME280;23671;38.090;-122.570;2023-02-19T01:08:48;101687.00;;;13.99;61.49
37832;BME280;23671;38.090;-122.570;2023-02-19T01:11:16;101684.34;;;13.99;61.60
37832;BME280;23671;38.090;-122.570;2023-02-19T01:13:44;101680.00;;;13.98;61.82
37832;BME280;23671;38.090;-122.570;2023-02-19T01:16:19;101682.78;;;13.97;62.09
37832;BME280;23671;38.090;-122.570;2023-02-19T01:18:47;101675.78;;;13.96;61.75
37832;BME280;23671;38.090;-122.570;2023-02-19T01:21:19;101673.13;;;13.96;62.25
37832;BME280;23671;38.090;-122.570;2023-02-19T01:23:47;101669.63;;;13.95;62.04
37832;BME280;23671;38.090;-122.570;2023-02-19T01:26:17;101671.44;;;13.95;62.23
37832;BME280;23671;38.090;-122.570;2023-02-19T01:28:46;101677.72;;;13.94;62.28
37832;BME280;23671;38.090;-122.570;2023-02-19T01:31:16;101684.94;;;13.92;62.15
37832;BME280;23671;38.090;-122.570;2023-02-19T01:33:45;101680.59;;;13.91;61.96
37832;BME280;23671;38.090;-122.570;2023-02-19T01:36:13;101678.19;;;13.88;62.34
37832;BME280;23671;38.090;-122.570;2023-02-19T01:38:41;101680.97;;;13.86;62.14
37832;BME280;23671;38.090;-122.570;2023-02-19T01:41:12;101686.38;;;13.85;62.59
37832;BME280;23671;38.090;-122.570;2023-02-19T01:43:59;101689.16;;;13.83;62.40
37832;BME280;23671;38.090;-122.570;2023-02-19T01:46:31;101679.63;;;13.81;62.28
37832;BME280;23671;38.090;-122.570;2023-02-19T01:49:02;101679.84;;;13.78;62.40
37832;BME280;23671;38.090;-122.570;2023-02-19T01:51:31;101671.16;;;13.76;62.53
37832;BME280;23671;38.090;-122.570;2023-02-19T01:54:00;101678.53;;;13.72;62.76
37832;BME280;23671;38.090;-122.570;2023-02-19T01:56:28;101683.09;;;13.70;62.42
37832;BME280;23671;38.090;-122.570;2023-02-19T01:58:57;101679.84;;;13.66;62.49
37832;BME280;23671;38.090;-122.570;2023-02-19T02:01:24;101681.88;;;13.63;62.94
37832;BME280;23671;38.090;-122.570;2023-02-19T02:03:51;101677.88;;;13.57;62.62
37832;BME280;23671;38.090;-122.570;2023-02-19T02:06:23;101669.22;;;13.55;63.32
37832;BME280;23671;38.090;-122.570;2023-02-19T02:08:53;101672.06;;;13.52;62.87
37832;BME280;23671;38.090;-122.570;2023-02-19T02:11:44;101670.75;;;13.47;63.03
37832;BME280;23671;38.090;-122.570;2023-02-19T02:14:13;101671.81;;;13.44;62.51
37832;BME280;23671;38.090;-122.570;2023-02-19T02:25:32;101671.66;;;13.35;63.36
37832;BME280;23671;38.090;-122.570;2023-02-19T02:30:46;101656.84;;;13.32;62.94
37832;BME280;23671;38.090;-122.570;2023-02-19T02:35:52;101664.28;;;13.27;62.72
37832;BME280;23671;38.090;-122.570;2023-02-19T02:38:22;101660.28;;;13.22;62.35
37832;BME280;23671;38.090;-122.570;2023-02-19T02:40:51;101655.00;;;13.22;62.93
37832;BME280;23671;38.090;-122.570;2023-02-19T02:43:19;101658.94;;;13.16;61.94
37832;BME280;23671;38.090;-122.570;2023-02-19T02:45:46;101669.03;;;13.11;62.10
37832;BME280;23671;38.090;-122.570;2023-02-19T02:48:25;101685.19;;;13.08;61.48
37832;BME280;23671;38.090;-122.570;2023-02-19T02:51:39;101692.66;;;13.03;60.96
37832;BME280;23671;38.090;-122.570;2023-02-19T02:53:53;101693.78;;;12.99;60.96
37832;BME280;23671;38.090;-122.570;2023-02-19T02:56:43;101698.56;;;12.94;60.84
37832;BME280;23671;38.090;-122.570;2023-02-19T02:59:15;101714.72;;;12.91;60.37
37832;BME280;23671;38.090;-122.570;2023-02-19T03:08:09;101687.28;;;12.79;60.35
37832;BME280;23671;38.090;-122.570;2023-02-19T03:10:51;101696.41;;;12.75;60.49
37832;BME280;23671;38.090;-122.570;2023-02-19T03:13:33;101704.69;;;12.71;60.37
37832;BME280;23671;38.090;-122.570;2023-02-19T03:16:27;101702.41;;;12.66;60.65
37832;BME280;23671;38.090;-122.570;2023-02-19T03:19:18;101694.03;;;12.60;60.67
37832;BME280;23671;38.090;-122.570;2023-02-19T03:22:39;101694.47;;;12.54;60.30
37832;BME280;23671;38.090;-122.570;2023-02-19T03:25:18;101689.28;;;12.52;60.42
37832;BME280;23671;38.090;-122.570;2023-02-19T03:28:08;101684.53;;;12.45;60.92
37832;BME280;23671;38.090;-122.570;2023-02-19T03:30:44;101680.91;;;12.46;59.87
37832;BME280;23671;38.090;-122.570;2023-02-19T03:33:28;101683.06;;;12.41;59.79
37832;BME280;23671;38.090;-122.570;2023-02-19T03:35:59;101688.59;;;12.38;60.33
37832;BME280;23671;38.090;-122.570;2023-02-19T03:38:36;101696.84;;;12.33;59.43
37832;BME280;23671;38.090;-122.570;2023-02-19T03:46:50;101713.94;;;12.17;59.71
37832;BME280;23671;38.090;-122.570;2023-02-19T03:57:51;101724.75;;;12.01;59.60
37832;BME280;23671;38.090;-122.570;2023-02-19T04:00:29;101723.16;;;11.99;59.48
37832;BME280;23671;38.090;-122.570;2023-02-19T04:03:09;101737.84;;;11.90;60.08
37832;BME280;23671;38.090;-122.570;2023-02-19T04:05:43;101734.69;;;11.85;59.21
37832;BME280;23671;38.090;-122.570;2023-02-19T04:08:16;101737.63;;;11.80;59.07
37832;BME280;23671;38.090;-122.570;2023-02-19T04:10:46;101734.97;;;11.80;59.46
37832;BME280;23671;38.090;-122.570;2023-02-19T04:13:31;101737.00;;;11.77;59.59
37832;BME280;23671;38.090;-122.570;2023-02-19T04:16:05;101742.91;;;11.68;59.89
37832;BME280;23671;38.090;-122.570;2023-02-19T04:18:37;101744.88;;;11.64;60.14
37832;BME280;23671;38.090;-122.570;2023-02-19T04:21:07;101752.16;;;11.61;59.35
37832;BME280;23671;38.090;-122.570;2023-02-19T04:23:41;101744.66;;;11.55;60.05
37832;BME280;23671;38.090;-122.570;2023-02-19T04:26:11;101742.09;;;11.53;59.40
37832;BME280;23671;38.090;-122.570;2023-02-19T04:28:39;101753.81;;;11.49;59.66
37832;BME280;23671;38.090;-122.570;2023-02-19T04:31:09;101758.38;;;11.47;59.41
37832;BME280;23671;38.090;-122.570;2023-02-19T04:33:36;101767.47;;;11.43;59.75
37832;BME280;23671;38.090;-122.570;2023-02-19T04:36:04;101778.13;;;11.42;59.09
37832;BME280;23671;38.090;-122.570;2023-02-19T04:38:33;101781.91;;;11.38;59.11
37832;BME280;23671;38.090;-122.570;2023-02-19T04:41:00;101788.28;;;11.35;58.69
37832;BME280;23671;38.090;-122.570;2023-02-19T04:43:27;101786.78;;;11.31;59.09
37832;BME280;23671;38.090;-122.570;2023-02-19T04:45:57;101782.53;;;11.29;58.79
37832;BME280;23671;38.090;-122.570;2023-02-19T04:48:24;101788.09;;;11.24;59.13
37832;BME280;23671;38.090;-122.570;2023-02-19T04:50:52;101797.28;;;11.19;59.62
37832;BME280;23671;38.090;-122.570;2023-02-19T04:53:19;101794.84;;;11.16;58.80
37832;BME280;23671;38.090;-122.570;2023-02-19T04:55:46;101799.50;;;11.12;58.83
37832;BME280;23671;38.090;-122.570;2023-02-19T04:58:13;101798.09;;;11.07;58.84
37832;BME280;23671;38.090;-122.570;2023-02-19T05:00:40;101807.22;;;11.01;59.11
37832;BME280;23671;38.090;-122.570;2023-02-19T05:03:07;101807.72;;;10.93;59.02
37832;BME280;23671;38.090;-122.570;2023-02-19T05:05:35;101820.19;;;10.91;59.06
37832;BME280;23671;38.090;-122.570;2023-02-19T05:08:02;101818.72;;;10.87;58.70
37832;BME280;23671;38.090;-122.570;2023-02-19T05:10:29;101826.91;;;10.83;58.87
37832;BME280;23671;38.090;-122.570;2023-02-19T05:12:56;101829.16;;;10.75;59.21
37832;BME280;23671;38.090;-122.570;2023-02-19T05:15:23;101826.53;;;10.75;59.29
37832;BME280;23671;38.090;-122.570;2023-02-19T05:17:50;101830.50;;;10.68;58.71
37832;BME280;23671;38.090;-122.570;2023-02-19T05:20:17;101843.78;;;10.66;58.88
37832;BME280;23671;38.090;-122.570;2023-02-19T05:22:44;101847.75;;;10.59;59.13
37832;BME280;23671;38.090;-122.570;2023-02-19T05:25:11;101850.59;;;10.56;59.05
37832;BME280;23671;38.090;-122.570;2023-02-19T05:27:38;101839.53;;;10.50;59.06
37832;BME280;23671;38.090;-122.570;2023-02-19T05:30:05;101849.63;;;10.43;58.94
37832;BME280;23671;38.090;-122.570;2023-02-19T05:32:34;101856.31;;;10.35;59.04
37832;BME280;23671;38.090;-122.570;2023-02-19T05:35:01;101859.88;;;10.34;59.13
37832;BME280;23671;38.090;-122.570;2023-02-19T05:37:28;101855.75;;;10.30;59.29
37832;BME280;23671;38.090;-122.570;2023-02-19T05:39:55;101865.38;;;10.31;59.07
37832;BME280;23671;38.090;-122.570;2023-02-19T05:42:22;101879.88;;;10.24;58.86
37832;BME280;23671;38.090;-122.570;2023-02-19T05:44:49;101884.41;;;10.22;59.18
37832;BME280;23671;38.090;-122.570;2023-02-19T05:47:16;101891.72;;;10.17;59.36
37832;BME280;23671;38.090;-122.570;2023-02-19T05:49:43;101881.50;;;10.11;59.34
37832;BME280;23671;38.090;-122.570;2023-02-19T05:52:10;101865.84;;;10.07;59.35
37832;BME280;23671;38.090;-122.570;2023-02-19T05:54:37;101860.06;;;10.01;59.27
37832;BME280;23671;38.090;-122.570;2023-02-19T05:57:04;101860.34;;;9.96;59.28
37832;BME280;23671;38.090;-122.570;2023-02-19T05:59:31;101865.78;;;9.93;59.71
37832;BME280;23671;38.090;-122.570;2023-02-19T06:01:58;101877.81;;;9.83;59.53
37832;BME280;23671;38.090;-122.570;2023-02-19T06:04:25;101867.69;;;9.76;59.69
37832;BME280;23671;38.090;-122.570;2023-02-19T06:06:52;101867.97;;;9.71;59.55
37832;BME280;23671;38.090;-122.570;2023-02-19T06:09:19;101861.19;;;9.67;59.59
37832;BME280;23671;38.090;-122.570;2023-02-19T06:11:46;101866.78;;;9.61;60.01
37832;BME280;23671;38.090;-122.570;2023-02-19T06:14:13;101868.00;;;9.56;59.74
37832;BME280;23671;38.090;-122.570;2023-02-19T06:16:41;101869.69;;;9.57;59.97
37832;BME280;23671;38.090;-122.570;2023-02-19T06:19:08;101862.22;;;9.49;60.21
37832;BME280;23671;38.090;-122.570;2023-02-19T06:21:35;101863.31;;;9.45;60.29
37832;BME280;23671;38.090;-122.570;2023-02-19T06:24:08;101861.78;;;9.41;60.16
37832;BME280;23671;38.090;-122.570;2023-02-19T06:26:35;101858.56;;;9.36;60.32
37832;BME280;23671;38.090;-122.570;2023-02-19T06:29:03;101867.34;;;9.37;59.84
37832;BME280;23671;38.090;-122.570;2023-02-19T06:31:30;101858.81;;;9.32;59.96
37832;BME280;23671;38.090;-122.570;2023-02-19T06:33:58;101858.31;;;9.25;60.15
37832;BME280;23671;38.090;-122.570;2023-02-19T06:36:25;101863.06;;;9.18;60.28
37832;BME280;23671;38.090;-122.570;2023-02-19T06:38:52;101858.81;;;9.16;60.31
37832;BME280;23671;38.090;-122.570;2023-02-19T06:41:19;101866.03;;;9.12;60.04
37832;BME280;23671;38.090;-122.570;2023-02-19T06:43:46;101850.50;;;9.08;60.03
37832;BME280;23671;38.090;-122.570;2023-02-19T06:46:13;101856.69;;;9.07;60.49
37832;BME280;23671;38.090;-122.570;2023-02-19T06:48:41;101854.38;;;9.01;60.15
37832;BME280;23671;38.090;-122.570;2023-02-19T06:51:14;101849.28;;;8.98;59.91
37832;BME280;23671;38.090;-122.570;2023-02-19T06:53:41;101854.72;;;8.95;60.73
37832;BME280;23671;38.090;-122.570;2023-02-19T06:56:25;101848.09;;;8.88;60.50
37832;BME280;23671;38.090;-122.570;2023-02-19T06:58:59;101844.84;;;8.83;60.80
37832;BME280;23671;38.090;-122.570;2023-02-19T07:01:27;101852.91;;;8.80;60.67
37832;BME280;23671;38.090;-122.570;2023-02-19T07:03:54;101845.97;;;8.79;60.05
37832;BME280;23671;38.090;-122.570;2023-02-19T07:06:23;101841.78;;;8.75;60.66
37832;BME280;23671;38.090;-122.570;2023-02-19T07:08:51;101848.06;;;8.72;60.03
37832;BME280;23671;38.090;-122.570;2023-02-19T07:11:18;101854.19;;;8.73;60.05
37832;BME280;23671;38.090;-122.570;2023-02-19T07:13:45;101857.72;;;8.72;60.73
37832;BME280;23671;38.090;-122.570;2023-02-19T07:16:13;101857.13;;;8.67;60.26
37832;BME280;23671;38.090;-122.570;2023-02-19T07:18:40;101856.53;;;8.62;60.26
37832;BME280;23671;38.090;-122.570;2023-02-19T07:21:12;101855.81;;;8.58;60.48
37832;BME280;23671;38.090;-122.570;2023-02-19T07:23:40;101852.50;;;8.55;60.19
37832;BME280;23671;38.090;-122.570;2023-02-19T07:26:18;101843.16;;;8.49;60.69
37832;BME280;23671;38.090;-122.570;2023-02-19T07:28:48;101840.59;;;8.48;60.38
37832;BME280;23671;38.090;-122.570;2023-02-19T07:31:16;101836.44;;;8.44;60.84
37832;BME280;23671;38.090;-122.570;2023-02-19T07:33:45;101821.66;;;8.41;60.83
37832;BME280;23671;38.090;-122.570;2023-02-19T07:36:13;101820.19;;;8.36;60.85
37832;BME280;23671;38.090;-122.570;2023-02-19T07:38:40;101825.53;;;8.34;60.71
37832;BME280;23671;38.090;-122.570;2023-02-19T07:41:07;101822.13;;;8.32;60.76
37832;BME280;23671;38.090;-122.570;2023-02-19T07:43:36;101824.16;;;8.27;60.60
37832;BME280;23671;38.090;-122.570;2023-02-19T07:46:05;101819.09;;;8.22;60.36
37832;BME280;23671;38.090;-122.570;2023-02-19T07:48:34;101827.91;;;8.21;60.91
37832;BME280;23671;38.090;-122.570;2023-02-19T07:51:02;101828.84;;;8.20;60.93
37832;BME280;23671;38.090;-122.570;2023-02-19T07:53:29;101841.31;;;8.17;60.41
37832;BME280;23671;38.090;-122.570;2023-02-19T07:56:01;101851.16;;;8.13;60.35
37832;BME280;23671;38.090;-122.570;2023-02-19T07:58:29;101850.50;;;8.08;61.06
37832;BME280;23671;38.090;-122.570;2023-02-19T08:00:56;101854.16;;;8.06;60.79
37832;BME280;23671;38.090;-122.570;2023-02-19T08:03:23;101869.19;;;8.04;60.99
37832;BME280;23671;38.090;-122.570;2023-02-19T08:05:50;101856.06;;;8.02;60.90
37832;BME280;23671;38.090;-122.570;2023-02-19T08:08:19;101849.28;;;7.98;60.57
37832;BME280;23671;38.090;-122.570;2023-02-19T08:10:46;101840.59;;;7.96;60.94
37832;BME280;23671;38.090;-122.570;2023-02-19T08:13:31;101851.28;;;7.93;60.41
37832;BME280;23671;38.090;-122.570;2023-02-19T08:18:31;101832.09;;;7.91;60.51
37832;BME280;23671;38.090;-122.570;2023-02-19T08:20:59;101823.34;;;7.91;60.28
37832;BME280;23671;38.090;-122.570;2023-02-19T08:23:27;101830.56;;;7.87;61.14
37832;BME280;23671;38.090;-122.570;2023-02-19T08:25:59;101828.09;;;7.84;60.39
37832;BME280;23671;38.090;-122.570;2023-02-19T08:28:27;101822.06;;;7.82;60.99
37832;BME280;23671;38.090;-122.570;2023-02-19T08:31:02;101833.97;;;7.89;60.57
37832;BME280;23671;38.090;-122.570;2023-02-19T08:33:31;101842.94;;;7.85;60.42
37832;BME280;23671;38.090;-122.570;2023-02-19T08:36:02;101840.47;;;7.82;60.89
37832;BME280;23671;38.090;-122.570;2023-02-19T08:38:31;101848.56;;;7.78;60.78
37832;BME280;23671;38.090;-122.570;2023-02-19T08:41:04;101859.16;;;7.76;60.32
37832;BME280;23671;38.090;-122.570;2023-02-19T08:43:31;101861.03;;;7.74;60.77
37832;BME280;23671;38.090;-122.570;2023-02-19T08:45:58;101861.03;;;7.74;60.24
37832;BME280;23671;38.090;-122.570;2023-02-19T08:48:26;101860.06;;;7.75;60.28
37832;BME280;23671;38.090;-122.570;2023-02-19T08:51:05;101867.28;;;7.72;60.16
37832;BME280;23671;38.090;-122.570;2023-02-19T08:53:34;101868.13;;;7.72;60.65
37832;BME280;23671;38.090;-122.570;2023-02-19T08:56:13;101866.56;;;7.68;59.85
37832;BME280;23671;38.090;-122.570;2023-02-19T08:58:41;101873.69;;;7.66;60.04
37832;BME280;23671;38.090;-122.570;2023-02-19T09:01:13;101872.81;;;7.66;60.18
37832;BME280;23671;38.090;-122.570;2023-02-19T09:03:40;101877.16;;;7.67;60.40
37832;BME280;23671;38.090;-122.570;2023-02-19T09:06:17;101872.00;;;7.65;60.16
37832;BME280;23671;38.090;-122.570;2023-02-19T09:08:45;101878.94;;;7.66;60.27
37832;BME280;23671;38.090;-122.570;2023-02-19T09:11:12;101878.41;;;7.60;60.22
37832;BME280;23671;38.090;-122.570;2023-02-19T09:13:39;101874.91;;;7.59;59.87
37832;BME280;23671;38.090;-122.570;2023-02-19T09:16:06;101862.84;;;7.55;60.08
37832;BME280;23671;38.090;-122.570;2023-02-19T09:18:33;101870.03;;;7.52;59.86
37832;BME280;23671;38.090;-122.570;2023-02-19T09:21:04;101862.75;;;7.57;60.16
37832;BME280;23671;38.090;-122.570;2023-02-19T09:23:35;101871.19;;;7.46;59.91
37832;BME280;23671;38.090;-122.570;2023-02-19T09:26:03;101869.25;;;7.50;59.95
37832;BME280;23671;38.090;-122.570;2023-02-19T09:28:33;101861.28;;;7.51;59.87
37832;BME280;23671;38.090;-122.570;2023-02-19T09:31:07;101861.56;;;7.45;59.70
37832;BME280;23671;38.090;-122.570;2023-02-19T09:33:34;101853.78;;;7.44;60.26
37832;BME280;23671;38.090;-122.570;2023-02-19T09:36:02;101846.75;;;7.44;60.02
37832;BME280;23671;38.090;-122.570;2023-02-19T09:38:29;101838.91;;;7.43;60.10
37832;BME280;23671;38.090;-122.570;2023-02-19T09:40:58;101840.75;;;7.41;59.43
37832;BME280;23671;38.090;-122.570;2023-02-19T09:43:27;101833.63;;;7.44;59.87
37832;BME280;23671;38.090;-122.570;2023-02-19T09:46:43;101838.22;;;7.39;59.77
37832;BME280;23671;38.090;-122.570;2023-02-19T09:48:52;101839.38;;;7.33;59.87
37832;BME280;23671;38.090;-122.570;2023-02-19T09:51:22;101841.91;;;7.35;59.82
37832;BME280;23671;38.090;-122.570;2023-02-19T09:53:52;101850.66;;;7.35;59.81
37832;BME280;23671;38.090;-122.570;2023-02-19T09:56:19;101866.59;;;7.32;59.81
37832;BME280;23671;38.090;-122.570;2023-02-19T09:58:52;101866.63;;;7.31;59.64
37832;BME280;23671;38.090;-122.570;2023-02-19T10:01:20;101868.63;;;7.26;59.53
37832;BME280;23671;38.090;-122.570;2023-02-19T10:03:50;101856.28;;;7.28;59.85
37832;BME280;23671;38.090;-122.570;2023-02-19T10:06:23;101850.31;;;7.24;59.90
37832;BME280;23671;38.090;-122.570;2023-02-19T10:09:05;101858.28;;;7.23;59.52
37832;BME280;23671;38.090;-122.570;2023-02-19T10:11:38;101853.03;;;7.23;59.48
37832;BME280;23671;38.090;-122.570;2023-02-19T10:14:07;101865.38;;;7.21;59.55
37832;BME280;23671;38.090;-122.570;2023-02-19T10:16:44;101845.56;;;7.14;59.67
37832;BME280;23671;38.090;-122.570;2023-02-19T10:19:13;101838.69;;;7.11;59.61
37832;BME280;23671;38.090;-122.570;2023-02-19T10:21:41;101842.16;;;7.12;59.72
37832;BME280;23671;38.090;-122.570;2023-02-19T10:24:15;101840.38;;;7.12;59.65
37832;BME280;23671;38.090;-122.570;2023-02-19T10:26:46;101827.34;;;7.11;59.55
37832;BME280;23671;38.090;-122.570;2023-02-19T10:29:13;101823.16;;;7.07;59.66
37832;BME280;23671;38.090;-122.570;2023-02-19T10:31:40;101833.66;;;7.07;59.51
37832;BME280;23671;38.090;-122.570;2023-02-19T10:34:17;101816.19;;;7.06;59.61
37832;BME280;23671;38.090;-122.570;2023-02-19T10:36:50;101815.41;;;7.04;59.43
37832;BME280;23671;38.090;-122.570;2023-02-19T10:41:48;101820.03;;;6.99;59.44
37832;BME280;23671;38.090;-122.570;2023-02-19T10:44:24;101813.09;;;6.98;59.49
37832;BME280;23671;38.090;-122.570;2023-02-19T10:46:55;101814.97;;;6.94;59.50
37832;BME280;23671;38.090;-122.570;2023-02-19T10:55:30;101810.03;;;6.88;59.60
37832;BME280;23671;38.090;-122.570;2023-02-19T10:57:57;101814.63;;;6.83;59.55
37832;BME280;23671;38.090;-122.570;2023-02-19T11:00:41;101814.63;;;6.83;59.46
37832;BME280;23671;38.090;-122.570;2023-02-19T11:03:21;101813.00;;;6.81;59.57
37832;BME280;23671;38.090;-122.570;2023-02-19T11:06:02;101812.28;;;6.77;59.68
37832;BME280;23671;38.090;-122.570;2023-02-19T11:08:39;101808.97;;;6.74;59.79
37832;BME280;23671;38.090;-122.570;2023-02-19T11:11:21;101812.50;;;6.73;59.86
37832;BME280;23671;38.090;-122.570;2023-02-19T11:13:49;101803.00;;;6.70;59.76
37832;BME280;23671;38.090;-122.570;2023-02-19T11:16:16;101808.31;;;6.69;59.58
37832;BME280;23671;38.090;-122.570;2023-02-19T11:18:44;101811.84;;;6.68;59.61
37832;BME280;23671;38.090;-122.570;2023-02-19T11:21:26;101808.44;;;6.66;59.51
37832;BME280;23671;38.090;-122.570;2023-02-19T11:23:59;101807.91;;;6.59;60.00
37832;BME280;23671;38.090;-122.570;2023-02-19T11:26:33;101802.75;;;6.56;59.71
37832;BME280;23671;38.090;-122.570;2023-02-19T11:29:20;101807.09;;;6.57;59.72
37832;BME280;23671;38.090;-122.570;2023-02-19T11:31:54;101808.00;;;6.56;59.56
37832;BME280;23671;38.090;-122.570;2023-02-19T11:34:24;101805.47;;;6.55;59.73
37832;BME280;23671;38.090;-122.570;2023-02-19T11:37:15;101804.59;;;6.54;59.84
37832;BME280;23671;38.090;-122.570;2023-02-19T11:39:50;101805.66;;;6.50;60.00
37832;BME280;23671;38.090;-122.570;2023-02-19T11:45:21;101817.34;;;6.43;59.80
37832;BME280;23671;38.090;-122.570;2023-02-19T11:53:59;101819.38;;;6.36;59.83
37832;BME280;23671;38.090;-122.570;2023-02-19T11:56:36;101820.44;;;6.32;59.98
37832;BME280;23671;38.090;-122.570;2023-02-19T12:02:38;101818.03;;;6.28;60.19
37832;BME280;23671;38.090;-122.570;2023-02-19T12:11:20;101817.44;;;6.21;60.00
37832;BME280;23671;38.090;-122.570;2023-02-19T12:24:49;101819.75;;;6.09;60.49
37832;BME280;23671;38.090;-122.570;2023-02-19T12:28:07;101818.03;;;6.08;60.67
37832;BME280;23671;38.090;-122.570;2023-02-19T12:36:27;101813.06;;;6.02;60.39
37832;BME280;23671;38.090;-122.570;2023-02-19T12:39:07;101821.00;;;6.00;60.14
37832;BME280;23671;38.090;-122.570;2023-02-19T12:44:57;101825.44;;;5.98;60.40
37832;BME280;23671;38.090;-122.570;2023-02-19T12:47:32;101820.47;;;5.92;60.54
37832;BME280;23671;38.090;-122.570;2023-02-19T12:52:42;101811.81;;;5.90;60.29
37832;BME280;23671;38.090;-122.570;2023-02-19T12:55:35;101820.03;;;5.81;60.80
37832;BME280;23671;38.090;-122.570;2023-02-19T12:58:08;101815.66;;;5.82;60.84
37832;BME280;23671;38.090;-122.570;2023-02-19T13:00:44;101825.13;;;5.86;60.78
37832;BME280;23671;38.090;-122.570;2023-02-19T13:03:17;101827.81;;;5.83;60.51
37832;BME280;23671;38.090;-122.570;2023-02-19T13:05:54;101834.06;;;5.80;60.54
37832;BME280;23671;38.090;-122.570;2023-02-19T13:08:50;101829.72;;;5.79;60.73
37832;BME280;23671;38.090;-122.570;2023-02-19T13:11:29;101839.34;;;5.79;60.80
37832;BME280;23671;38.090;-122.570;2023-02-19T13:14:04;101843.16;;;5.72;61.01
37832;BME280;23671;38.090;-122.570;2023-02-19T13:16:38;101841.47;;;5.71;60.67
37832;BME280;23671;38.090;-122.570;2023-02-19T13:19:08;101836.16;;;5.72;60.79
37832;BME280;23671;38.090;-122.570;2023-02-19T13:21:37;101833.63;;;5.69;60.53
37832;BME280;23671;38.090;-122.570;2023-02-19T13:24:35;101833.69;;;5.68;60.49
37832;BME280;23671;38.090;-122.570;2023-02-19T13:27:29;101836.47;;;5.65;60.64
37832;BME280;23671;38.090;-122.570;2023-02-19T13:33:02;101833.06;;;5.63;60.73
37832;BME280;23671;38.090;-122.570;2023-02-19T13:38:23;101833.22;;;5.58;60.83
37832;BME280;23671;38.090;-122.570;2023-02-19T13:40:58;101834.25;;;5.54;60.57
37832;BME280;23671;38.090;-122.570;2023-02-19T13:43:32;101832.56;;;5.53;61.01
37832;BME280;23671;38.090;-122.570;2023-02-19T13:46:13;101831.78;;;5.51;61.04
37832;BME280;23671;38.090;-122.570;2023-02-19T13:48:42;101839.72;;;5.49;61.13
37832;BME280;23671;38.090;-122.570;2023-02-19T13:53:47;101847.56;;;5.49;60.57
37832;BME280;23671;38.090;-122.570;2023-02-19T13:59:23;101837.25;;;5.45;60.57
37832;BME280;23671;38.090;-122.570;2023-02-19T14:14:46;101836.94;;;5.31;60.87
37832;BME280;23671;38.090;-122.570;2023-02-19T14:27:44;101848.59;;;5.24;61.08
37832;BME280;23671;38.090;-122.570;2023-02-19T14:30:12;101842.38;;;5.26;60.71
37832;BME280;23671;38.090;-122.570;2023-02-19T14:32:40;101839.94;;;5.22;61.30
37832;BME280;23671;38.090;-122.570;2023-02-19T14:35:23;101839.16;;;5.20;61.17
37832;BME280;23671;38.090;-122.570;2023-02-19T14:37:53;101832.88;;;5.24;60.67
37832;BME280;23671;38.090;-122.570;2023-02-19T14:40:22;101842.06;;;5.12;61.25
37832;BME280;23671;38.090;-122.570;2023-02-19T14:42:53;101847.00;;;5.20;61.04
37832;BME280;23671;38.090;-122.570;2023-02-19T14:45:21;101849.78;;;5.15;60.95
37832;BME280;23671;38.090;-122.570;2023-02-19T14:47:51;101863.97;;;5.10;61.24
37832;BME280;23671;38.090;-122.570;2023-02-19T14:50:31;101867.53;;;5.07;61.03